1978 16S:VERN (1978027S16115)


On this page: IBTrACS data - Map and Plots - Positions - Intensities - Original source data

Summary

Start Jan 27
End Feb 3
Basin SI
LMI 85 kt
Sources jtwc_sh
bom
td9636
neumann
ds824_au
ds824_sh
In WMO? Yes
Previous storm 1978 14S (SI)
Previous in basin 1978 14S (SI)
Concurrent storms 1978 14S (SI)
1978 16S (SI)
1978 15S (SI)
1978 BOB (SP)
1978 17P (SP)
Next in basin 1978 15S (SI)
Next storm 1978 15S (SI)

top of page IBTrACS Data: File Access

No storm imagery available

top of page Plots:

Map of storm track will not appear if FTP is down
Time series of cyclone Maximum Sustained Wind will not appear if FTP is down
Time series of cyclone Minimum Central Pressure will not appear if FTP is down

top of page Track Data:Position

jtwc_sh bom td9636 neumann ds824_au ds824_sh
Date Lat Lon Lat Lon Lat Lon Lat Lon Lat Lon Lat Lon
1978-01-27 00:00:00 -16.0 114.9
1978-01-27 06:00:00 -16.0 114.1 -16.0 114.4 -16.0 114.1
1978-01-27 12:00:00 -16.0 113.2 -16.0 113.3 -16.0 113.2 -16.0 113.6 -16.0 113.3 -16.0 113.2
1978-01-27 18:00:00 -15.6 112.3 -15.8 112.5 -15.7 112.4 -15.9 112.8 -15.8 112.5 -15.6 112.3
1978-01-28 00:00:00 -15.6 111.4 -15.6 111.6 -15.6 111.4 -15.7 111.8 -15.6 111.6 -15.6 111.4
1978-01-28 06:00:00 -16.1 110.5 -15.4 110.4 -16.0 110.2 -15.5 110.7 -15.4 110.4 -16.1 110.5
1978-01-28 12:00:00 -16.4 109.7 -16.1 109.5 -16.4 109.7 -15.9 109.7 -16.1 109.7 -16.4 109.7
1978-01-28 18:00:00 -16.3 110.9 -16.5 111.4 -16.3 111.0 -16.4 111.1 -16.5 111.3 -16.3 110.9
1978-01-29 00:00:00 -16.1 112.7 -16.1 112.6 -16.1 112.7 -16.2 112.4 -16.1 112.5 -16.1 112.7
1978-01-29 06:00:00 -16.0 113.3 -15.9 113.2 -15.9 113.5 -15.8 113.2 -15.9 113.2 -16.0 113.3
1978-01-29 12:00:00 -15.8 114.0 -15.8 113.9 -15.8 114.0 -15.8 113.9 -15.8 113.9 -15.8 114.0
1978-01-29 18:00:00 -15.7 114.6 -15.7 114.5 -15.7 114.6 -15.7 114.5 -15.7 114.5 -15.7 114.6
1978-01-30 00:00:00 -15.7 115.3 -15.7 115.1 -15.7 115.3 -15.7 115.2 -15.7 115.2 -15.7 115.3
1978-01-30 06:00:00 -15.9 116.3 -15.9 116.5 -15.9 116.4 -15.8 116.3 -15.9 116.5 -15.9 116.3
1978-01-30 12:00:00 -16.2 117.6 -16.1 117.5 -16.2 117.6 -16.1 117.4 -16.1 117.5 -16.2 117.6
1978-01-30 18:00:00 -16.6 118.8 -16.4 118.6 -16.6 118.9 -16.4 118.5 -16.4 118.6 -16.6 118.8
1978-01-31 00:00:00 -17.0 120.0 -16.9 119.9 -17.0 120.0 -16.8 119.7 -16.9 119.8 -17.0 120.0
1978-01-31 06:00:00 -17.5 120.8 -17.4 120.4 -17.5 120.8 -17.3 120.4 -17.4 120.4 -17.5 120.8
1978-01-31 12:00:00 -18.0 121.2 -17.9 121.1 -18.0 121.2 -17.9 121.2 -17.9 121.1 -18.0 121.2
1978-01-31 18:00:00 -18.4 121.4 -18.3 121.4 -18.4 121.4 -18.3 121.4 -18.3 121.4 -18.4 121.4
1978-02-01 00:00:00 -18.8 121.4 -18.7 121.4 -18.8 121.4 -18.7 121.5 -18.8 121.5 -18.8 121.4
1978-02-01 06:00:00 -19.3 121.2 -19.4 121.3 -19.3 121.2 -19.3 121.4 -19.4 121.3 -19.3 121.2
1978-02-01 12:00:00 -19.9 120.9 -19.8 121.0 -19.9 120.9 -19.8 121.1 -19.8 121.0 -19.9 120.9
1978-02-01 18:00:00 -20.4 120.6 -20.3 120.5 -20.4 120.6 -20.3 120.7 -20.3 120.5 -20.4 120.6
1978-02-02 00:00:00 -20.9 120.3 -20.8 120.3 -20.9 120.3 -20.7 120.5 -20.8 120.3 -20.9 120.3
jtwc_sh bom td9636 neumann ds824_au ds824_sh
1978-02-02 06:00:00 -21.6 120.2 -21.6 120.2 -21.6 120.1 -21.4 120.3 -21.6 120.2 -21.6 120.2
1978-02-02 12:00:00 -22.4 120.2 -22.3 120.2 -22.4 120.2 -22.2 120.3 -22.3 120.2 -22.4 120.2
1978-02-02 18:00:00 -23.0 120.5 -22.9 120.5 -23.0 120.5 -22.8 120.5 -22.9 120.5 -23.0 120.5
1978-02-03 00:00:00 -23.6 121.0 -23.5 120.9 -23.6 121.0 -23.4 120.9 -23.5 120.9 -23.6 121.0

top of pageTrack Data:Intensity

jtwc_sh bom td9636 neumann ds824_au ds824_sh
Date Wind Pres Wind Pres Wind Pres Wind Pres Wind Pres Wind Pres
1978-01-27 00:00:00 999.
1978-01-27 06:00:00 997. 35. 997. 35. 997.
1978-01-27 12:00:00 35. 997. 35. 35. 997. 35. 997. 35.
1978-01-27 18:00:00 35. 997. 35. 35. 997. 35. 997. 35.
1978-01-28 00:00:00 35. 995. 35. 40. 995. 40. 995. 35.
1978-01-28 06:00:00 40. 992. 35. 40. 993. 45. 992. 40.
1978-01-28 12:00:00 50. 988. 50. 50. 989. 50. 988. 50.
1978-01-28 18:00:00 55. 984. 50. 55. 985. 55. 984. 55.
1978-01-29 00:00:00 60. 981. 60. 60. 982. 60. 981. 60.
1978-01-29 06:00:00 60. 979. 60. 65. 979. 60. 979. 60.
1978-01-29 12:00:00 65. 977. 65. 65. 977. 65. 977. 65.
1978-01-29 18:00:00 65. 975. 65. 70. 975. 65. 975. 65.
1978-01-30 00:00:00 70. 973. 70. 70. 973. 70. 973. 70.
1978-01-30 06:00:00 70. 969. 70. 75. 970. 75. 969. 70.
1978-01-30 12:00:00 75. 968. 75. 75. 968. 75. 968. 75.
1978-01-30 18:00:00 80. 967. 75. 80. 967. 75. 967. 80.
1978-01-31 00:00:00 85. 965. 85. 80. 965. 80. 965. 85.
1978-01-31 06:00:00 85. 964. 85. 80. 964. 80. 964. 85.
1978-01-31 12:00:00 85. 85. 80. 965. 85.
1978-01-31 18:00:00 85. 965. 85. 80. 965. 80. 965. 85.
1978-02-01 00:00:00 85. 965. 85. 80. 965. 80. 965. 85.
1978-02-01 06:00:00 75. 971. 85. 75. 969. 70. 971. 75.
1978-02-01 12:00:00 65. 979. 65. 50. 976. 60. 979. 65.
1978-02-01 18:00:00 55. 985. 65. 40. 983. 55. 985. 55.
1978-02-02 00:00:00 45. 990. 45. 35. 988. 45. 990. 45.
jtwc_sh bom td9636 neumann ds824_au ds824_sh
1978-02-02 06:00:00 40. 990. 45. 30. 990. 45. 990. 40.
1978-02-02 12:00:00 40. 993. 40. 30. 992. 40. 993. 40.
1978-02-02 18:00:00 40. 995. 40. 30. 994. 40. 995. 40.
1978-02-03 00:00:00 35. 997. 35. 25. 996. 35. 997. 35.

top of page Links to source data

Source Source file Format
jtwc_sh bsh161978.txt ATCF
bom Newcyclonedatabase-08repair.csv:Line=10368:VERN CSV file (from Excel file)
td9636 cons_worldwide_trop_cyclone_18710101-19891231-006:Line=10539 TD 9636
neumann tracks.sh:Storm=520:VERN:BSH1678:BM487 HURDAT
ds824_au aus_area.dat:572:VERN HURDAT
ds824_sh s_hem.dat:1362:16S HURDAT